Airfield :
LOGIN :

Register | Disclaimer

   EN    FR    IT 

 










Legend :    VFR   Marginal VFR   IFR   Intensive IFR   Very Intensive IFR
Visi :
Ceiling :
>= 8 km
>= 3000ft
5 to 8 km
1000 to 3000 ft
1500m to 5 km
500 to 1000 ft
800 to 1500m
200 to 500 ft
< 800m
< 200 ft
Symbols :   Thunderstorms  Fog  Heavy snow  Heavy precipitations  Wind > 20 kt
SIGMETs :     Misc.  Thunderstorms  Icing  Turbulence  Mountain Waves  Volcanic Ashes






- Airport Elevation : 0 ft


ENSL - Sleipner A Platform

CURRENT METAR :
  • 231920Z AUTO 34021KT 9999NDV FEW011/// 05/03 Q1007 W03/S5

EXPIRED METARs :
  • 231850Z AUTO 34025KT 9999NDV -SHRA SCT019/// 05/02 Q1006 W03/S5
  • 231820Z AUTO 34023KT 9999NDV -SHRA BKN014/// 06/03 Q1005 W04/S5
  • 231750Z AUTO 32021KT 9999NDV FEW016/// 06/03 Q1004 W04/S5
  • 231720Z AUTO 31021KT 9999NDV -SHRA SCT033/// 05/02 Q1002 W04/S5
  • 231650Z AUTO 31026KT 9999NDV -SHRA BKN016/// 05/03 Q1001 W04/S5

Expired Forecast.



MET'MAP, your aeronautical weather chart ! - Copyright ORBIFLY December 2007 - Disclaimer

ORBIFLY MET'MAP TEAM :

Programming & Development : Alexandra Zaïnal
Concept & original design : Baudouin d'Aumeries
Assistance for programming : Marc-Olivier Méhu
Technical & hardware support : Manuel Goepfert

Contact : metmap@orbifly.com




SOURCES & CREDITS :

   NOAA